Terminal Aerodrome Forecast
Issued by NWS

Home | Current Version | Previous Version | Text Only | Print | Product List | Glossary On
Versions: 1 2 3 4 5 6 7 8 9 10 11 12 13 14 15 16
348
FTPA31 PHFO 172342
TAFHOG
TAF
PHOG 172342Z 1800/1824 05015G21KT P6SM FEW025 SCT040
     FM180600 06011KT P6SM SCT040
     FM182000 06016G22KT P6SM FEW025 SCT040
      AMD LTD TO VIS AND WIND 1806/1816=

USA.gov is the U.S. government's official web portal to all federal, state and local government web resources and services.